Time;durP1;ratioP1;P1;durP2;ratioP2;P2;SDS_P1;SDS_P2;PMS_P1;PMS_P2;Temp;Humidity;BMP_temperature;BMP_pressure;BME280_temperature;BME280_humidity;BME280_pressure;Samples;Min_cycle;Max_cycle;Signal;HPM_P1;HPM_P2
2022/04/18 00:00:28;;;;;;;;;;;;;;;;;;5098240;28;28339;-82
2022/04/18 00:02:53;;;;;;;;;;;;;;;;;;5098362;28;28550;-83
2022/04/18 00:05:18;;;;;;;;;;;;;;;;;;5098103;28;28557;-83
2022/04/18 00:07:43;;;;;;;;;;;;;;;;;;5098314;28;29292;-83
2022/04/18 00:10:08;;;;;;;;;;;;;;;;;;5097917;28;28428;-83
2022/04/18 00:12:34;;;;;;;;;;;;;;;;;;5098239;28;28460;-83
2022/04/18 00:14:59;;;;;;;;;;;;;;;;;;5098381;28;28521;-83
2022/04/18 00:17:24;;;;;;;;;;;;;;;;;;5113515;27;28508;-83
2022/04/18 00:19:49;;;;;;;;;;;;;;;;;;5097983;28;28354;-83
2022/04/18 00:22:14;;;;;;;;;;;;;;;;;;5097834;28;28437;-82
2022/04/18 00:24:39;;;;;;;;;;;;;;;;;;5098110;28;28402;-82
2022/04/18 00:27:04;;;;;;;;;;;;;;;;;;5098015;28;28410;-83
2022/04/18 00:29:29;;;;;;;;;;;;;;;;;;5097620;28;28442;-82
2022/04/18 00:31:55;;;;;;;;;;;;;;;;;;5097815;28;28324;-82
2022/04/18 00:34:20;;;;;;;;;;;;;;;;;;5097808;28;28398;-82
2022/04/18 00:36:45;;;;;;;;;;;;;;;;;;5097505;28;28386;-82
2022/04/18 00:39:10;;;;;;;;;;;;;;;;;;5097737;28;28425;-82
2022/04/18 00:41:35;;;;;;;;;;;;;;;;;;5097536;28;28343;-83
2022/04/18 00:44:00;;;;;;;;;;;;;;;;;;5097943;28;28390;-82
2022/04/18 00:46:25;;;;;;;;;;;;;;;;;;5097479;28;28299;-83
2022/04/18 00:48:51;;;;;;;;;;;;;;;;;;5097648;28;27842;-83
2022/04/18 00:51:16;;;;;;;;;;;;;;;;;;5097511;28;28413;-83
2022/04/18 00:53:41;;;;;;;;;;;;;;;;;;5097738;28;28402;-83
2022/04/18 00:56:06;;;;;;;;;;;;;;;;;;5097422;28;28330;-83
2022/04/18 00:58:31;;;;;;;;;;;;;;;;;;5097441;28;28318;-83
2022/04/18 01:00:56;;;;;;;;;;;;;;;;;;5097479;28;28306;-83
2022/04/18 01:03:21;;;;;;;;;;;;;;;;;;5097311;28;28240;-83
2022/04/18 01:05:46;;;;;;;;;;;;;;;;;;5097185;28;29037;-83
2022/04/18 01:08:11;;;;;;;;;;;;;;;;;;5097388;28;28318;-83
2022/04/18 01:10:37;;;;;;;;;;;;;;;;;;5097225;28;28359;-83
2022/04/18 01:13:02;;;;;;;;;;;;;;;;;;5097441;28;28235;-83
2022/04/18 01:15:27;;;;;;;;;;;;;;;;;;5096821;28;28251;-83
2022/04/18 01:17:52;;;;;;;;;;;;;;;;;;5097003;28;28252;-83
2022/04/18 01:20:17;;;;;;;;;;;;;;;;;;5097299;28;28342;-83
2022/04/18 01:22:44;;;;;;;;;;;;;;;;;;5112742;27;28465;-83
2022/04/18 01:30:37;;;;;;;;;;;;;;;;;;5096976;28;28405;-83
2022/04/18 01:33:02;;;;;;;;;;;;;;;;;;5097021;28;28378;-83
2022/04/18 01:35:27;;;;;;;;;;;;;;;;;;5096895;28;28586;-83
2022/04/18 01:37:52;;;;;;;;;;;;;;;;;;5096566;28;28317;-83
2022/04/18 01:40:17;;;;;;;;;;;;;;;;;;5096554;28;28375;-83
2022/04/18 01:42:42;;;;;;;;;;;;;;;;;;5096943;28;28403;-83
2022/04/18 01:45:07;;;;;;;;;;;;;;;;;;5095597;28;28454;-83
2022/04/18 01:47:32;;;;;;;;;;;;;;;;;;5096951;28;28506;-83
2022/04/18 01:49:57;;;;;;;;;;;;;;;;;;5096551;28;28283;-82
2022/04/18 01:52:22;;;;;;;;;;;;;;;;;;5096507;28;28236;-83
2022/04/18 01:54:48;;;;;;;;;;;;;;;;;;5096502;28;28294;-83
2022/04/18 01:57:13;;;;;;;;;;;;;;;;;;5096408;28;28529;-83
2022/04/18 01:59:39;;;;;;;;;;;;;;;;;;5096506;28;28212;-83
2022/04/18 02:02:04;;;;;;;;;;;;;;;;;;5096475;28;28322;-82
2022/04/18 02:04:30;;;;;;;;;;;;;;;;;;5096108;28;33747;-82
2022/04/18 02:06:55;;;;;;;;;;;;;;;;;;5096237;28;28615;-82
2022/04/18 02:09:20;;;;;;;;;;;;;;;;;;5096338;28;28535;-82
2022/04/18 02:11:45;;;;;;;;;;;;;;;;;;5096505;28;28518;-83
2022/04/18 02:14:11;;;;;;;;;;;;;;;;;;5096105;28;28408;-82
2022/04/18 02:16:36;;;;;;;;;;;;;;;;;;5096323;28;28556;-83
2022/04/18 02:19:01;;;;;;;;;;;;;;;;;;5096217;28;28463;-83
2022/04/18 02:21:26;;;;;;;;;;;;;;;;;;5096126;28;28519;-83
2022/04/18 02:23:51;;;;;;;;;;;;;;;;;;5096075;28;28496;-83
2022/04/18 02:26:16;;;;;;;;;;;;;;;;;;5095811;28;28449;-83
2022/04/18 02:28:41;;;;;;;;;;;;;;;;;;5096200;28;28350;-83
2022/04/18 02:31:07;;;;;;;;;;;;;;;;;;5111799;27;28540;-83
2022/04/18 02:33:32;;;;;;;;;;;;;;;;;;5095802;28;28396;-83
2022/04/18 02:35:57;;;;;;;;;;;;;;;;;;5095942;28;28595;-83
2022/04/18 02:38:22;;;;;;;;;;;;;;;;;;5095691;28;28417;-83
2022/04/18 02:40:47;;;;;;;;;;;;;;;;;;5096036;28;28439;-83
2022/04/18 02:43:12;;;;;;;;;;;;;;;;;;5095754;28;28468;-83
2022/04/18 02:45:37;;;;;;;;;;;;;;;;;;5095329;28;28434;-83
2022/04/18 02:48:02;;;;;;;;;;;;;;;;;;5095902;28;28465;-83
2022/04/18 02:50:27;;;;;;;;;;;;;;;;;;5095655;28;28380;-83
2022/04/18 02:52:52;;;;;;;;;;;;;;;;;;5095462;28;28405;-83
2022/04/18 02:55:18;;;;;;;;;;;;;;;;;;5095337;28;28380;-83
2022/04/18 02:57:43;;;;;;;;;;;;;;;;;;5095514;28;28374;-83
2022/04/18 03:00:08;;;;;;;;;;;;;;;;;;5111478;27;28448;-83
2022/04/18 03:02:33;;;;;;;;;;;;;;;;;;5095641;28;28392;-83
2022/04/18 03:04:58;;;;;;;;;;;;;;;;;;5095508;28;28385;-83
2022/04/18 03:07:23;;;;;;;;;;;;;;;;;;5095037;28;28458;-83
2022/04/18 03:09:48;;;;;;;;;;;;;;;;;;5095828;28;28373;-83
2022/04/18 03:12:13;;;;;;;;;;;;;;;;;;5095421;28;28448;-82
2022/04/18 03:14:38;;;;;;;;;;;;;;;;;;5095410;28;28480;-81
2022/04/18 03:17:03;;;;;;;;;;;;;;;;;;5095387;28;28373;-81
2022/04/18 03:19:29;;;;;;;;;;;;;;;;;;5095452;28;28445;-82
2022/04/18 03:21:54;;;;;;;;;;;;;;;;;;5110862;27;28580;-82
2022/04/18 03:24:19;;;;;;;;;;;;;;;;;;5095215;28;28351;-82
2022/04/18 03:26:45;;;;;;;;;;;;;;;;;;5095105;28;28505;-83
2022/04/18 03:29:10;;;;;;;;;;;;;;;;;;5095427;28;28442;-80
2022/04/18 03:31:36;;;;;;;;;;;;;;;;;;5095019;28;28481;-80
2022/04/18 03:34:01;;;;;;;;;;;;;;;;;;5095318;28;28537;-83
2022/04/18 03:41:53;;;;;;;;;;;;;;;;;;5094821;28;28358;-82
2022/04/18 03:44:18;;;;;;;;;;;;;;;;;;5095146;28;28346;-82
2022/04/18 03:46:43;;;;;;;;;;;;;;;;;;5094645;28;28399;-83
2022/04/18 03:49:09;;;;;;;;;;;;;;;;;;5095192;28;28367;-82
2022/04/18 03:51:34;;;;;;;;;;;;;;;;;;5094828;28;28476;-83
2022/04/18 03:53:59;;;;;;;;;;;;;;;;;;5094756;28;28365;-82
2022/04/18 03:56:24;;;;;;;;;;;;;;;;;;5095119;28;28381;-82
2022/04/18 03:58:49;;;;;;;;;;;;;;;;;;5094903;28;28386;-82
2022/04/18 04:01:14;;;;;;;;;;;;;;;;;;5094496;28;28437;-82
2022/04/18 04:03:39;;;;;;;;;;;;;;;;;;5094667;28;28442;-82
2022/04/18 04:06:05;;;;;;;;;;;;;;;;;;5094845;28;28457;-82
2022/04/18 04:08:31;;;;;;;;;;;;;;;;;;5097068;28;28382;-82
2022/04/18 04:10:57;;;;;;;;;;;;;;;;;;5098045;28;28383;-82
2022/04/18 04:13:22;;;;;;;;;;;;;;;;;;5098116;28;28485;-82
2022/04/18 04:15:47;;;;;;;;;;;;;;;;;;5113939;27;28437;-82
2022/04/18 04:18:12;;;;;;;;;;;;;;;;;;5098176;28;28311;-82
2022/04/18 04:20:37;;;;;;;;;;;;;;;;;;5113805;27;28501;-82
2022/04/18 04:23:02;;;;;;;;;;;;;;;;;;5097566;28;28487;-82
2022/04/18 04:25:27;;;;;;;;;;;;;;;;;;5097984;28;27749;-82
2022/04/18 04:27:52;;;;;;;;;;;;;;;;;;5098031;28;28276;-82
2022/04/18 04:30:17;;;;;;;;;;;;;;;;;;5097910;28;28147;-82
2022/04/18 04:32:43;;;;;;;;;;;;;;;;;;5097891;28;28290;-82
2022/04/18 04:35:08;;;;;;;;;;;;;;;;;;5097775;28;28677;-82
2022/04/18 04:37:33;;;;;;;;;;;;;;;;;;5097799;28;28215;-82
2022/04/18 04:39:58;;;;;;;;;;;;;;;;;;5097400;28;28516;-82
2022/04/18 04:42:23;;;;;;;;;;;;;;;;;;5097698;28;28345;-82
2022/04/18 04:44:48;;;;;;;;;;;;;;;;;;5097777;28;28485;-82
2022/04/18 04:47:13;;;;;;;;;;;;;;;;;;5097742;28;28251;-82
2022/04/18 04:49:38;;;;;;;;;;;;;;;;;;5097479;28;28738;-82
2022/04/18 04:52:04;;;;;;;;;;;;;;;;;;5097463;28;28261;-82
2022/04/18 04:54:29;;;;;;;;;;;;;;;;;;5097507;28;28618;-82
2022/04/18 04:56:54;;;;;;;;;;;;;;;;;;5097820;28;28388;-82
2022/04/18 04:59:19;;;;;;;;;;;;;;;;;;5097247;28;29003;-82
2022/04/18 05:01:44;;;;;;;;;;;;;;;;;;5097361;28;27922;-82
2022/04/18 05:04:09;;;;;;;;;;;;;;;;;;5097536;28;28256;-81
2022/04/18 05:06:34;;;;;;;;;;;;;;;;;;5097399;28;28410;-81
2022/04/18 05:08:59;;;;;;;;;;;;;;;;;;5097179;28;29365;-81
2022/04/18 05:11:25;;;;;;;;;;;;;;;;;;5097080;28;28544;-81
2022/04/18 05:13:50;;;;;;;;;;;;;;;;;;5097264;28;28562;-81
2022/04/18 05:16:15;;;;;;;;;;;;;;;;;;5097341;28;28302;-81
2022/04/18 05:18:40;;;;;;;;;;;;;;;;;;5096147;28;28501;-81
2022/04/18 05:21:05;;;;;;;;;;;;;;;;;;5096834;28;28393;-81
2022/04/18 05:23:30;;;;;;;;;;;;;;;;;;5096830;28;28365;-81
2022/04/18 05:25:55;;;;;;;;;;;;;;;;;;5097277;28;28244;-81
2022/04/18 05:28:20;;;;;;;;;;;;;;;;;;5096781;28;28992;-81
2022/04/18 05:30:45;;;;;;;;;;;;;;;;;;5096577;28;28374;-81
2022/04/18 05:33:11;;;;;;;;;;;;;;;;;;5112597;27;28418;-81
2022/04/18 05:35:36;;;;;;;;;;;;;;;;;;5097090;28;28595;-81
2022/04/18 05:38:01;;;;;;;;;;;;;;;;;;5096701;28;28995;-82
2022/04/18 05:40:27;;;;;;;;;;;;;;;;;;5096736;28;28437;-82
2022/04/18 05:42:52;;;;;;;;;;;;;;;;;;5096864;28;28330;-81
2022/04/18 05:45:18;;;;;;;;;;;;;;;;;;5096698;28;28401;-81
2022/04/18 05:47:43;;;;;;;;;;;;;;;;;;5096586;28;28338;-81
2022/04/18 05:50:08;;;;;;;;;;;;;;;;;;5108505;27;28521;-81
2022/04/18 05:52:33;;;;;;;;;;;;;;;;;;5114717;27;28403;-82
2022/04/18 05:54:58;;;;;;;;;;;;;;;;;;5117147;27;28478;-81
2022/04/18 05:57:23;;;;;;;;;;;;;;;;;;5116821;27;28453;-81
2022/04/18 05:59:48;;;;;;;;;;;;;;;;;;5116745;27;27888;-81
2022/04/18 06:02:13;;;;;;;;;;;;;;;;;;5117001;27;28311;-81
2022/04/18 06:04:39;;;;;;;;;;;;;;;;;;5098285;27;27884;-81
2022/04/18 06:07:04;;;;;;;;;;;;;;;;;;5096435;27;28323;-81
2022/04/18 06:09:29;;;;;;;;;;;;;;;;;;5095925;28;28368;-81
2022/04/18 06:11:54;;;;;;;;;;;;;;;;;;5096554;28;28335;-81
2022/04/18 06:14:19;;;;;;;;;;;;;;;;;;5096255;28;28415;-81
2022/04/18 06:16:45;;;;;;;;;;;;;;;;;;5096320;28;28992;-81
2022/04/18 06:19:10;;;;;;;;;;;;;;;;;;5096188;28;28432;-82
2022/04/18 06:21:35;;;;;;;;;;;;;;;;;;5096203;28;28567;-82
2022/04/18 06:24:00;;;;;;;;;;;;;;;;;;5096043;28;28374;-82
2022/04/18 06:26:25;;;;;;;;;;;;;;;;;;5095848;28;28568;-82
2022/04/18 06:28:50;;;;;;;;;;;;;;;;;;5095949;28;28398;-82
2022/04/18 06:31:15;;;;;;;;;;;;;;;;;;5095751;28;28491;-82
2022/04/18 06:33:40;;;;;;;;;;;;;;;;;;5095872;28;28422;-82
2022/04/18 06:36:05;;;;;;;;;;;;;;;;;;5095622;28;29140;-83
2022/04/18 06:38:31;;;;;;;;;;;;;;;;;;5095685;28;28323;-83
2022/04/18 06:40:56;;;;;;;;;;;;;;;;;;5111530;27;28493;-83
2022/04/18 06:43:21;;;;;;;;;;;;;;;;;;5096089;28;28353;-83
2022/04/18 06:45:46;;;;;;;;;;;;;;;;;;5095558;28;28477;-84
2022/04/18 06:48:11;;;;;;;;;;;;;;;;;;5095392;28;28149;-84
2022/04/18 06:50:36;;;;;;;;;;;;;;;;;;5095605;27;28329;-85
2022/04/18 06:53:02;;;;;;;;;;;;;;;;;;5095791;28;28270;-84
2022/04/18 06:55:27;;;;;;;;;;;;;;;;;;5095537;28;28447;-85
2022/04/18 06:57:52;;;;;;;;;;;;;;;;;;5095522;28;28378;-85
2022/04/18 07:00:17;;;;;;;;;;;;;;;;;;5095315;28;28417;-85
2022/04/18 07:02:42;;;;;;;;;;;;;;;;;;5095647;28;28369;-83
2022/04/18 07:05:07;;;;;;;;;;;;;;;;;;5095427;28;28437;-84
2022/04/18 07:07:32;;;;;;;;;;;;;;;;;;5095473;28;28290;-83
2022/04/18 07:09:58;;;;;;;;;;;;;;;;;;5095327;28;28330;-83
2022/04/18 07:12:23;;;;;;;;;;;;;;;;;;5095393;27;28302;-86
2022/04/18 07:14:48;;;;;;;;;;;;;;;;;;5095190;28;28423;-87
2022/04/18 07:17:14;;;;;;;;;;;;;;;;;;5111165;27;28412;-82
2022/04/18 07:19:39;;;;;;;;;;;;;;;;;;5095037;28;28337;-82
2022/04/18 07:22:04;;;;;;;;;;;;;;;;;;5090594;28;28417;-82
2022/04/18 07:24:29;;;;;;;;;;;;;;;;;;5095104;28;28582;-82
2022/04/18 07:27:00;;;;;;;;;;;;;;;;;;5094473;28;28457;-82
2022/04/18 07:29:25;;;;;;;;;;;;;;;;;;5095436;28;28424;-82
2022/04/18 07:31:50;;;;;;;;;;;;;;;;;;5094971;28;28307;-82
2022/04/18 07:34:15;;;;;;;;;;;;;;;;;;5093738;28;28373;-84
2022/04/18 07:36:41;;;;;;;;;;;;;;;;;;5094823;28;28290;-82
2022/04/18 07:39:06;;;;;;;;;;;;;;;;;;5094634;28;28487;-82
2022/04/18 07:41:31;;;;;;;;;;;;;;;;;;5095087;28;28485;-82
2022/04/18 07:43:56;;;;;;;;;;;;;;;;;;5097866;28;29209;-82
2022/04/18 07:46:21;;;;;;;;;;;;;;;;;;5097868;28;28268;-81
2022/04/18 07:48:46;;;;;;;;;;;;;;;;;;5098301;28;28480;-82
2022/04/18 07:53:55;;;;;;;;;;;;;;;;;;5098182;28;28403;-81
2022/04/18 07:56:21;;;;;;;;;;;;;;;;;;5098603;28;28441;-81
2022/04/18 07:58:46;;;;;;;;;;;;;;;;;;5098005;27;28257;-81
2022/04/18 08:01:11;;;;;;;;;;;;;;;;;;5098138;28;28244;-83
2022/04/18 08:03:36;;;;;;;;;;;;;;;;;;5097711;28;28646;-81
2022/04/18 08:06:01;;;;;;;;;;;;;;;;;;5097765;28;28500;-81
2022/04/18 08:08:26;;;;;;;;;;;;;;;;;;5098328;28;28366;-81
2022/04/18 08:10:51;;;;;;;;;;;;;;;;;;5097884;28;28568;-81
2022/04/18 08:13:16;;;;;;;;;;;;;;;;;;5098186;28;28303;-82
2022/04/18 08:15:41;;;;;;;;;;;;;;;;;;5097986;28;28388;-81
2022/04/18 08:18:06;;;;;;;;;;;;;;;;;;5097911;28;28374;-81
2022/04/18 08:20:32;;;;;;;;;;;;;;;;;;5098235;28;28295;-81
2022/04/18 08:22:57;;;;;;;;;;;;;;;;;;5097623;27;28236;-79
2022/04/18 08:25:22;;;;;;;;;;;;;;;;;;5097656;28;28409;-79
2022/04/18 08:27:47;;;;;;;;;;;;;;;;;;5097576;28;28478;-82
2022/04/18 08:30:12;;;;;;;;;;;;;;;;;;5097676;28;28437;-81
2022/04/18 08:32:37;;;;;;;;;;;;;;;;;;5098041;28;28665;-81
2022/04/18 08:35:02;;;;;;;;;;;;;;;;;;5097746;28;28306;-81
2022/04/18 08:37:28;;;;;;;;;;;;;;;;;;5097746;28;28320;-81
2022/04/18 08:39:53;;;;;;;;;;;;;;;;;;5097623;28;28216;-81
2022/04/18 08:42:18;;;;;;;;;;;;;;;;;;5097449;28;28259;-81
2022/04/18 08:44:43;;;;;;;;;;;;;;;;;;5097754;28;28402;-82
2022/04/18 08:47:08;;;;;;;;;;;;;;;;;;5097538;28;28375;-82
2022/04/18 08:55:00;;;;;;;;;;;;;;;;;;5097079;28;28610;-81
2022/04/18 08:57:26;;;;;;;;;;;;;;;;;;5097503;28;28318;-82
2022/04/18 08:59:51;;;;;;;;;;;;;;;;;;5097636;28;35087;-82
2022/04/18 09:02:16;;;;;;;;;;;;;;;;;;5097196;28;28303;-82
2022/04/18 09:04:41;;;;;;;;;;;;;;;;;;5097386;28;28401;-82
2022/04/18 09:07:06;;;;;;;;;;;;;;;;;;5113043;27;28288;-82
2022/04/18 09:09:31;;;;;;;;;;;;;;;;;;5097080;28;28333;-81
2022/04/18 09:11:56;;;;;;;;;;;;;;;;;;5097389;28;28326;-81
2022/04/18 09:14:21;;;;;;;;;;;;;;;;;;5096946;28;28390;-81
2022/04/18 09:16:46;;;;;;;;;;;;;;;;;;5097204;28;28282;-81
2022/04/18 09:19:12;;;;;;;;;;;;;;;;;;5097297;28;28524;-81
2022/04/18 09:21:37;;;;;;;;;;;;;;;;;;5096868;28;28340;-86
2022/04/18 09:24:02;;;;;;;;;;;;;;;;;;5097235;28;28246;-83
2022/04/18 09:26:27;;;;;;;;;;;;;;;;;;5096831;28;28551;-82
2022/04/18 09:28:52;;;;;;;;;;;;;;;;;;5097099;28;28320;-82
2022/04/18 09:31:17;;;;;;;;;;;;;;;;;;5112668;27;28837;-82
2022/04/18 09:33:43;;;;;;;;;;;;;;;;;;5096805;28;28336;-83
2022/04/18 09:36:08;;;;;;;;;;;;;;;;;;5097048;28;28285;-83
2022/04/18 09:38:33;;;;;;;;;;;;;;;;;;5096803;28;28244;-82
2022/04/18 09:40:58;;;;;;;;;;;;;;;;;;5096513;28;28610;-83
2022/04/18 09:43:23;;;;;;;;;;;;;;;;;;5096454;28;28322;-83
2022/04/18 09:45:48;;;;;;;;;;;;;;;;;;5096527;28;28282;-84
2022/04/18 09:48:13;;;;;;;;;;;;;;;;;;5096843;28;28460;-83
2022/04/18 09:53:22;;;;;;;;;;;;;;;;;;5096297;28;28335;-83
2022/04/18 09:55:47;;;;;;;;;;;;;;;;;;5096540;28;28233;-83
2022/04/18 09:58:13;;;;;;;;;;;;;;;;;;5096628;28;28311;-84
2022/04/18 10:00:38;;;;;;;;;;;;;;;;;;5096580;28;28512;-84
2022/04/18 10:03:03;;;;;;;;;;;;;;;;;;5096095;28;28427;-80
2022/04/18 10:05:28;;;;;;;;;;;;;;;;;;5095549;28;28504;-80
2022/04/18 10:07:53;;;;;;;;;;;;;;;;;;5096311;28;28325;-80
2022/04/18 10:10:19;;;;;;;;;;;;;;;;;;5095899;28;29312;-80
2022/04/18 10:12:44;;;;;;;;;;;;;;;;;;5112073;27;28265;-80
2022/04/18 10:15:09;;;;;;;;;;;;;;;;;;5096095;28;28468;-80
2022/04/18 10:17:34;;;;;;;;;;;;;;;;;;5095757;28;28338;-80
2022/04/18 10:19:59;;;;;;;;;;;;;;;;;;5096145;28;28357;-80
2022/04/18 10:22:24;;;;;;;;;;;;;;;;;;5095914;28;28247;-80
2022/04/18 10:24:49;;;;;;;;;;;;;;;;;;5096272;28;28397;-80
2022/04/18 10:27:14;;;;;;;;;;;;;;;;;;5095780;28;28311;-80
2022/04/18 10:29:39;;;;;;;;;;;;;;;;;;5095817;28;28526;-80
2022/04/18 10:32:05;;;;;;;;;;;;;;;;;;5090949;28;28367;-80
2022/04/18 10:34:32;;;;;;;;;;;;;;;;;;5095652;28;28389;-80
2022/04/18 10:36:58;;;;;;;;;;;;;;;;;;5095779;28;28463;-81
2022/04/18 10:39:23;;;;;;;;;;;;;;;;;;5095708;28;28392;-82
2022/04/18 10:41:48;;;;;;;;;;;;;;;;;;5095260;28;28447;-84
2022/04/18 10:44:13;;;;;;;;;;;;;;;;;;5095516;28;28467;-81
2022/04/18 10:46:38;;;;;;;;;;;;;;;;;;5095494;28;28613;-82
2022/04/18 10:49:06;;;;;;;;;;;;;;;;;;5095388;28;28405;-82
2022/04/18 10:51:32;;;;;;;;;;;;;;;;;;5110931;27;28394;-81
2022/04/18 10:53:57;;;;;;;;;;;;;;;;;;5095579;28;28351;-81
2022/04/18 10:56:22;;;;;;;;;;;;;;;;;;5095839;28;27872;-81
2022/04/18 10:58:48;;;;;;;;;;;;;;;;;;5095212;28;28420;-82
2022/04/18 11:01:15;;;;;;;;;;;;;;;;;;5095251;28;28270;-81
2022/04/18 11:03:40;;;;;;;;;;;;;;;;;;5111088;27;28506;-81
2022/04/18 11:06:05;;;;;;;;;;;;;;;;;;5095496;28;28287;-80
2022/04/18 11:08:30;;;;;;;;;;;;;;;;;;5095297;28;28327;-79
2022/04/18 11:10:55;;;;;;;;;;;;;;;;;;5095202;28;28249;-80
2022/04/18 11:13:20;;;;;;;;;;;;;;;;;;5095159;28;28494;-79
2022/04/18 11:15:45;;;;;;;;;;;;;;;;;;5095449;28;28386;-81
2022/04/18 11:18:11;;;;;;;;;;;;;;;;;;5097467;28;28491;-81
2022/04/18 11:20:36;;;;;;;;;;;;;;;;;;5098814;28;28462;-81
2022/04/18 11:23:01;;;;;;;;;;;;;;;;;;5098784;28;28453;-81
2022/04/18 11:25:26;;;;;;;;;;;;;;;;;;5098972;28;28327;-82
2022/04/18 11:27:52;;;;;;;;;;;;;;;;;;5098531;28;28421;-81
2022/04/18 11:30:18;;;;;;;;;;;;;;;;;;5098717;27;27859;-81
2022/04/18 11:32:46;;;;;;;;;;;;;;;;;;5098822;27;28392;-81
2022/04/18 11:35:11;;;;;;;;;;;;;;;;;;5098744;28;28243;-82
2022/04/18 11:37:36;;;;;;;;;;;;;;;;;;5098759;28;28265;-81
2022/04/18 11:40:02;;;;;;;;;;;;;;;;;;5098400;28;28320;-81
2022/04/18 11:42:30;;;;;;;;;;;;;;;;;;5098580;28;28281;-81
2022/04/18 11:44:55;;;;;;;;;;;;;;;;;;5098638;27;28245;-81
2022/04/18 11:47:20;;;;;;;;;;;;;;;;;;5098151;28;28319;-81
2022/04/18 11:49:45;;;;;;;;;;;;;;;;;;5098626;28;28255;-81
2022/04/18 11:52:10;;;;;;;;;;;;;;;;;;5098404;28;28763;-80
2022/04/18 11:54:35;;;;;;;;;;;;;;;;;;5098865;28;28314;-81
2022/04/18 11:57:00;;;;;;;;;;;;;;;;;;5098473;28;29852;-80
2022/04/18 11:59:26;;;;;;;;;;;;;;;;;;5098188;28;28433;-84
2022/04/18 12:07:19;;;;;;;;;;;;;;;;;;5098037;28;28499;-83
2022/04/18 12:09:44;;;;;;;;;;;;;;;;;;5098025;27;28338;-84
2022/04/18 12:12:09;;;;;;;;;;;;;;;;;;5098159;28;28376;-83
2022/04/18 12:14:34;;;;;;;;;;;;;;;;;;5098189;28;28450;-83
2022/04/18 12:16:59;;;;;;;;;;;;;;;;;;5098016;28;29304;-83
2022/04/18 12:19:25;;;;;;;;;;;;;;;;;;5098075;28;28266;-83
2022/04/18 12:21:52;;;;;;;;;;;;;;;;;;5097939;27;28470;-83
2022/04/18 12:24:17;;;;;;;;;;;;;;;;;;5098240;27;28510;-84
2022/04/18 12:26:42;;;;;;;;;;;;;;;;;;5113373;27;28628;-84
2022/04/18 12:29:07;;;;;;;;;;;;;;;;;;5113060;27;28335;-85
2022/04/18 12:31:32;;;;;;;;;;;;;;;;;;5097808;28;28374;-83
2022/04/18 12:33:57;;;;;;;;;;;;;;;;;;5097747;28;28516;-83
2022/04/18 12:36:22;;;;;;;;;;;;;;;;;;5097938;28;28416;-83
2022/04/18 12:38:48;;;;;;;;;;;;;;;;;;5097743;27;28317;-83
2022/04/18 12:41:13;;;;;;;;;;;;;;;;;;5097761;27;28470;-83
2022/04/18 12:43:39;;;;;;;;;;;;;;;;;;5097705;28;28361;-83
2022/04/18 12:46:04;;;;;;;;;;;;;;;;;;5097463;27;28584;-83
2022/04/18 12:48:29;;;;;;;;;;;;;;;;;;5097661;28;28447;-83
2022/04/18 12:50:54;;;;;;;;;;;;;;;;;;5097513;28;28545;-83
2022/04/18 12:53:20;;;;;;;;;;;;;;;;;;5097956;28;28416;-83
2022/04/18 12:55:45;;;;;;;;;;;;;;;;;;5097608;28;28423;-83
2022/04/18 12:58:10;;;;;;;;;;;;;;;;;;5097460;28;28527;-83
2022/04/18 13:00:35;;;;;;;;;;;;;;;;;;5097515;28;28397;-83
2022/04/18 13:03:01;;;;;;;;;;;;;;;;;;5097394;27;28447;-83
2022/04/18 13:05:26;;;;;;;;;;;;;;;;;;5097496;27;28302;-83
2022/04/18 13:07:51;;;;;;;;;;;;;;;;;;5097175;28;28244;-83
2022/04/18 13:10:16;;;;;;;;;;;;;;;;;;5097496;28;28434;-83
2022/04/18 13:12:41;;;;;;;;;;;;;;;;;;5097152;28;28330;-83
2022/04/18 13:15:06;;;;;;;;;;;;;;;;;;5096977;28;28318;-83
2022/04/18 13:17:33;;;;;;;;;;;;;;;;;;5097324;28;27679;-83
2022/04/18 13:19:58;;;;;;;;;;;;;;;;;;5097287;27;28292;-83
2022/04/18 13:22:24;;;;;;;;;;;;;;;;;;5097548;28;28397;-83
2022/04/18 13:24:49;;;;;;;;;;;;;;;;;;5096974;27;29432;-83
2022/04/18 13:27:14;;;;;;;;;;;;;;;;;;5096663;28;28258;-83
2022/04/18 13:29:39;;;;;;;;;;;;;;;;;;5097352;28;27799;-83
2022/04/18 13:32:04;;;;;;;;;;;;;;;;;;5097043;28;35028;-83
2022/04/18 13:34:30;;;;;;;;;;;;;;;;;;5097021;28;28670;-83
2022/04/18 13:36:55;;;;;;;;;;;;;;;;;;5096829;28;28410;-83
2022/04/18 13:39:20;;;;;;;;;;;;;;;;;;5096505;28;28315;-83
2022/04/18 13:41:45;;;;;;;;;;;;;;;;;;5096238;28;28387;-83
2022/04/18 13:44:11;;;;;;;;;;;;;;;;;;5096736;27;29445;-83
2022/04/18 13:46:36;;;;;;;;;;;;;;;;;;5096510;28;28343;-83
2022/04/18 13:49:04;;;;;;;;;;;;;;;;;;5096481;27;28441;-83
2022/04/18 13:51:30;;;;;;;;;;;;;;;;;;5096735;27;28385;-83
2022/04/18 13:53:57;;;;;;;;;;;;;;;;;;5096618;27;28436;-83
2022/04/18 13:56:22;;;;;;;;;;;;;;;;;;5096596;27;28250;-83
2022/04/18 13:58:47;;;;;;;;;;;;;;;;;;5096572;28;28244;-83
2022/04/18 14:01:12;;;;;;;;;;;;;;;;;;5096575;28;28474;-83
2022/04/18 14:03:39;;;;;;;;;;;;;;;;;;5096119;28;29374;-83
2022/04/18 14:06:04;;;;;;;;;;;;;;;;;;5096450;27;28353;-82
2022/04/18 14:08:30;;;;;;;;;;;;;;;;;;5096236;27;28327;-82
2022/04/18 14:10:55;;;;;;;;;;;;;;;;;;5096678;28;28345;-82
2022/04/18 14:13:21;;;;;;;;;;;;;;;;;;5096218;27;28439;-82
2022/04/18 14:21:14;;;;;;;;;;;;;;;;;;5096482;28;28279;-82
2022/04/18 14:23:41;;;;;;;;;;;;;;;;;;5096059;28;28433;-82
2022/04/18 14:26:06;;;;;;;;;;;;;;;;;;5096026;27;28244;-82
2022/04/18 14:28:31;;;;;;;;;;;;;;;;;;5096196;28;27877;-82
2022/04/18 14:30:56;;;;;;;;;;;;;;;;;;5096120;28;28390;-84
2022/04/18 14:33:21;;;;;;;;;;;;;;;;;;5096164;28;28491;-84
2022/04/18 14:35:46;;;;;;;;;;;;;;;;;;5095779;27;28347;-81
2022/04/18 14:38:13;;;;;;;;;;;;;;;;;;5096149;28;28471;-84
2022/04/18 14:40:39;;;;;;;;;;;;;;;;;;5096011;27;28413;-83
2022/04/18 14:43:05;;;;;;;;;;;;;;;;;;5095741;28;29172;-83
2022/04/18 14:45:30;;;;;;;;;;;;;;;;;;5095566;27;28399;-84
2022/04/18 14:47:55;;;;;;;;;;;;;;;;;;5095646;28;28429;-84
2022/04/18 14:50:21;;;;;;;;;;;;;;;;;;5095715;28;28497;-83
2022/04/18 14:52:46;;;;;;;;;;;;;;;;;;5095566;27;28548;-83
2022/04/18 14:55:11;;;;;;;;;;;;;;;;;;5095644;28;28316;-83
2022/04/18 14:57:36;;;;;;;;;;;;;;;;;;5095618;28;28326;-82
2022/04/18 15:00:01;;;;;;;;;;;;;;;;;;5095735;28;28412;-81
2022/04/18 15:02:27;;;;;;;;;;;;;;;;;;5095326;27;28481;-81
2022/04/18 15:04:52;;;;;;;;;;;;;;;;;;5095593;28;28311;-82
2022/04/18 15:07:17;;;;;;;;;;;;;;;;;;5095560;28;28241;-81
2022/04/18 15:09:42;;;;;;;;;;;;;;;;;;5095750;28;28512;-81
2022/04/18 15:12:07;;;;;;;;;;;;;;;;;;5095359;28;28538;-81
2022/04/18 15:14:32;;;;;;;;;;;;;;;;;;5095412;28;28239;-82
2022/04/18 15:16:57;;;;;;;;;;;;;;;;;;5095548;28;28310;-85
2022/04/18 15:19:22;;;;;;;;;;;;;;;;;;5095421;28;28382;-83
2022/04/18 15:21:48;;;;;;;;;;;;;;;;;;5095249;28;29253;-83
2022/04/18 15:24:13;;;;;;;;;;;;;;;;;;5095437;27;28251;-85
2022/04/18 15:26:38;;;;;;;;;;;;;;;;;;5095088;28;28255;-85
2022/04/18 15:29:03;;;;;;;;;;;;;;;;;;5095507;28;28443;-84
2022/04/18 15:34:12;;;;;;;;;;;;;;;;;;5095186;28;28314;-84
2022/04/18 15:36:37;;;;;;;;;;;;;;;;;;5095439;28;28300;-84
2022/04/18 15:39:02;;;;;;;;;;;;;;;;;;5110906;27;28594;-84
2022/04/18 15:41:27;;;;;;;;;;;;;;;;;;5095140;28;28331;-83
2022/04/18 15:43:53;;;;;;;;;;;;;;;;;;5094907;28;28273;-84
2022/04/18 15:46:18;;;;;;;;;;;;;;;;;;5094911;28;28249;-84
2022/04/18 15:48:43;;;;;;;;;;;;;;;;;;5095257;28;28418;-83
2022/04/18 15:51:08;;;;;;;;;;;;;;;;;;5094955;28;28691;-84
2022/04/18 15:53:33;;;;;;;;;;;;;;;;;;5095112;28;28331;-84
2022/04/18 15:55:58;;;;;;;;;;;;;;;;;;5095097;28;28451;-84
2022/04/18 15:58:23;;;;;;;;;;;;;;;;;;5094933;28;28248;-83
2022/04/18 16:00:48;;;;;;;;;;;;;;;;;;5090185;28;28909;-82
2022/04/18 16:03:14;;;;;;;;;;;;;;;;;;5110686;27;28483;-83
2022/04/18 16:05:42;;;;;;;;;;;;;;;;;;5098431;27;28314;-84
2022/04/18 16:08:07;;;;;;;;;;;;;;;;;;5098174;27;28900;-84
2022/04/18 16:10:32;;;;;;;;;;;;;;;;;;5097845;28;28556;-85
2022/04/18 16:12:57;;;;;;;;;;;;;;;;;;5097871;28;28496;-84
2022/04/18 16:15:22;;;;;;;;;;;;;;;;;;5098108;28;28236;-81
2022/04/18 16:17:47;;;;;;;;;;;;;;;;;;5098109;28;28488;-80
2022/04/18 16:20:13;;;;;;;;;;;;;;;;;;5097955;28;29481;-81
2022/04/18 16:22:38;;;;;;;;;;;;;;;;;;5098046;27;28389;-82
2022/04/18 16:25:03;;;;;;;;;;;;;;;;;;5097990;28;28491;-83
2022/04/18 16:27:28;;;;;;;;;;;;;;;;;;5097721;28;28407;-81
2022/04/18 16:32:37;;;;;;;;;;;;;;;;;;5097842;28;28321;-81
2022/04/18 16:35:02;;;;;;;;;;;;;;;;;;5097743;28;27861;-83
2022/04/18 16:37:27;;;;;;;;;;;;;;;;;;5098147;28;28003;-82
2022/04/18 16:39:53;;;;;;;;;;;;;;;;;;5088901;28;28587;-83
2022/04/18 16:47:46;;;;;;;;;;;;;;;;;;5077110;28;28415;-82
2022/04/18 16:50:11;;;;;;;;;;;;;;;;;;5077126;28;29586;-82
2022/04/18 16:52:36;;;;;;;;;;;;;;;;;;5076876;28;28371;-82
2022/04/18 16:55:01;;;;;;;;;;;;;;;;;;5077299;28;28374;-86
2022/04/18 16:57:26;;;;;;;;;;;;;;;;;;5077103;28;28225;-87
2022/04/18 16:59:51;;;;;;;;;;;;;;;;;;5092735;28;29784;-87
2022/04/18 17:02:17;;;;;;;;;;;;;;;;;;5076811;28;28321;-89
2022/04/18 17:04:45;;;;;;;;;;;;;;;;;;5076938;28;28341;-89
2022/04/18 17:07:10;;;;;;;;;;;;;;;;;;5077326;28;28354;-91
2022/04/18 17:09:35;;;;;;;;;;;;;;;;;;5076998;28;29028;-89
2022/04/18 17:12:00;;;;;;;;;;;;;;;;;;5077152;28;28412;-89
2022/04/18 17:14:25;;;;;;;;;;;;;;;;;;5076568;28;28440;-89